sensor_id;sensor_type;location;lat;lon;timestamp;P1;durP1;ratioP1;P2;durP2;ratioP2
78324;SDS011;67584;51.400;6.692;2023-05-19T00:00:14;6.65;;;4.22;;
78324;SDS011;67584;51.400;6.692;2023-05-19T00:02:40;7.00;;;4.47;;
78324;SDS011;67584;51.400;6.692;2023-05-19T00:05:08;5.50;;;3.75;;
78324;SDS011;67584;51.400;6.692;2023-05-19T00:07:35;9.57;;;4.35;;
78324;SDS011;67584;51.400;6.692;2023-05-19T00:10:02;9.65;;;4.75;;
78324;SDS011;67584;51.400;6.692;2023-05-19T00:12:29;8.60;;;4.43;;
78324;SDS011;67584;51.400;6.692;2023-05-19T00:14:55;10.05;;;4.40;;
78324;SDS011;67584;51.400;6.692;2023-05-19T00:17:21;7.63;;;3.85;;
78324;SDS011;67584;51.400;6.692;2023-05-19T00:19:47;9.13;;;4.03;;
78324;SDS011;67584;51.400;6.692;2023-05-19T00:22:13;6.45;;;3.50;;
78324;SDS011;67584;51.400;6.692;2023-05-19T00:24:39;6.22;;;3.40;;
78324;SDS011;67584;51.400;6.692;2023-05-19T00:27:04;6.35;;;3.30;;
78324;SDS011;67584;51.400;6.692;2023-05-19T00:29:30;8.48;;;4.72;;
78324;SDS011;67584;51.400;6.692;2023-05-19T00:31:56;7.10;;;4.57;;
78324;SDS011;67584;51.400;6.692;2023-05-19T00:34:21;5.38;;;3.75;;
78324;SDS011;67584;51.400;6.692;2023-05-19T00:36:47;6.47;;;3.58;;
78324;SDS011;67584;51.400;6.692;2023-05-19T00:39:13;4.03;;;3.22;;
78324;SDS011;67584;51.400;6.692;2023-05-19T00:41:40;7.55;;;4.25;;
78324;SDS011;67584;51.400;6.692;2023-05-19T00:44:05;7.60;;;4.43;;
78324;SDS011;67584;51.400;6.692;2023-05-19T00:46:31;7.35;;;3.70;;
78324;SDS011;67584;51.400;6.692;2023-05-19T00:48:57;6.22;;;4.00;;
78324;SDS011;67584;51.400;6.692;2023-05-19T00:51:23;5.55;;;4.32;;
78324;SDS011;67584;51.400;6.692;2023-05-19T00:53:51;9.75;;;4.60;;
78324;SDS011;67584;51.400;6.692;2023-05-19T00:56:17;7.38;;;4.03;;
78324;SDS011;67584;51.400;6.692;2023-05-19T00:58:43;9.43;;;4.15;;
78324;SDS011;67584;51.400;6.692;2023-05-19T01:01:09;7.28;;;4.22;;
78324;SDS011;67584;51.400;6.692;2023-05-19T01:03:36;8.80;;;4.47;;
78324;SDS011;67584;51.400;6.692;2023-05-19T01:06:02;7.03;;;3.72;;
78324;SDS011;67584;51.400;6.692;2023-05-19T01:08:35;7.22;;;4.95;;
78324;SDS011;67584;51.400;6.692;2023-05-19T01:11:02;8.45;;;4.65;;
78324;SDS011;67584;51.400;6.692;2023-05-19T01:13:31;7.32;;;4.50;;
78324;SDS011;67584;51.400;6.692;2023-05-19T01:16:06;8.30;;;4.43;;
78324;SDS011;67584;51.400;6.692;2023-05-19T01:19:00;9.30;;;4.93;;
78324;SDS011;67584;51.400;6.692;2023-05-19T01:29:43;5.63;;;4.00;;
78324;SDS011;67584;51.400;6.692;2023-05-19T01:32:35;8.48;;;5.22;;
78324;SDS011;67584;51.400;6.692;2023-05-19T01:35:02;8.85;;;4.22;;
78324;SDS011;67584;51.400;6.692;2023-05-19T01:37:29;8.25;;;4.57;;
78324;SDS011;67584;51.400;6.692;2023-05-19T01:39:56;6.68;;;4.45;;
78324;SDS011;67584;51.400;6.692;2023-05-19T01:42:22;7.25;;;4.70;;
78324;SDS011;67584;51.400;6.692;2023-05-19T01:44:49;9.05;;;5.00;;
78324;SDS011;67584;51.400;6.692;2023-05-19T01:47:16;7.93;;;4.43;;
78324;SDS011;67584;51.400;6.692;2023-05-19T01:49:42;8.48;;;4.97;;
78324;SDS011;67584;51.400;6.692;2023-05-19T01:52:08;9.27;;;5.10;;
78324;SDS011;67584;51.400;6.692;2023-05-19T01:54:33;5.05;;;4.10;;
78324;SDS011;67584;51.400;6.692;2023-05-19T01:57:03;5.63;;;4.35;;
78324;SDS011;67584;51.400;6.692;2023-05-19T02:02:49;7.50;;;5.53;;
78324;SDS011;67584;51.400;6.692;2023-05-19T02:08:11;7.68;;;5.25;;
78324;SDS011;67584;51.400;6.692;2023-05-19T02:10:57;10.65;;;6.20;;
78324;SDS011;67584;51.400;6.692;2023-05-19T02:13:32;9.20;;;5.95;;
78324;SDS011;67584;51.400;6.692;2023-05-19T02:16:03;9.35;;;5.53;;
78324;SDS011;67584;51.400;6.692;2023-05-19T02:18:31;8.50;;;5.20;;
78324;SDS011;67584;51.400;6.692;2023-05-19T02:20:58;11.88;;;5.70;;
78324;SDS011;67584;51.400;6.692;2023-05-19T02:23:24;10.27;;;5.20;;
78324;SDS011;67584;51.400;6.692;2023-05-19T02:25:49;14.98;;;5.47;;
78324;SDS011;67584;51.400;6.692;2023-05-19T02:28:15;14.75;;;5.38;;
78324;SDS011;67584;51.400;6.692;2023-05-19T02:30:41;14.02;;;5.30;;
78324;SDS011;67584;51.400;6.692;2023-05-19T02:33:07;12.80;;;6.82;;
78324;SDS011;67584;51.400;6.692;2023-05-19T02:35:32;11.10;;;5.03;;
78324;SDS011;67584;51.400;6.692;2023-05-19T02:37:58;12.55;;;6.38;;
78324;SDS011;67584;51.400;6.692;2023-05-19T02:40:24;10.07;;;5.55;;
78324;SDS011;67584;51.400;6.692;2023-05-19T02:42:49;10.50;;;5.53;;
78324;SDS011;67584;51.400;6.692;2023-05-19T02:45:15;9.55;;;6.18;;
78324;SDS011;67584;51.400;6.692;2023-05-19T02:47:41;10.93;;;6.38;;
78324;SDS011;67584;51.400;6.692;2023-05-19T02:50:07;8.10;;;4.82;;
78324;SDS011;67584;51.400;6.692;2023-05-19T02:52:33;14.80;;;6.22;;
78324;SDS011;67584;51.400;6.692;2023-05-19T02:54:58;7.32;;;4.97;;
78324;SDS011;67584;51.400;6.692;2023-05-19T02:57:24;10.50;;;5.13;;
78324;SDS011;67584;51.400;6.692;2023-05-19T02:59:51;9.90;;;5.40;;
78324;SDS011;67584;51.400;6.692;2023-05-19T03:02:16;6.53;;;4.82;;
78324;SDS011;67584;51.400;6.692;2023-05-19T03:04:42;6.40;;;4.20;;
78324;SDS011;67584;51.400;6.692;2023-05-19T03:07:08;8.68;;;4.43;;
78324;SDS011;67584;51.400;6.692;2023-05-19T03:09:35;9.18;;;4.57;;
78324;SDS011;67584;51.400;6.692;2023-05-19T03:12:01;5.82;;;4.43;;
78324;SDS011;67584;51.400;6.692;2023-05-19T03:14:29;5.47;;;4.65;;
78324;SDS011;67584;51.400;6.692;2023-05-19T03:16:54;7.10;;;4.22;;
78324;SDS011;67584;51.400;6.692;2023-05-19T03:19:20;9.25;;;6.10;;
78324;SDS011;67584;51.400;6.692;2023-05-19T03:21:46;9.35;;;4.10;;
78324;SDS011;67584;51.400;6.692;2023-05-19T03:24:12;6.78;;;4.20;;
78324;SDS011;67584;51.400;6.692;2023-05-19T03:26:37;6.57;;;4.90;;
78324;SDS011;67584;51.400;6.692;2023-05-19T03:29:03;8.50;;;4.07;;
78324;SDS011;67584;51.400;6.692;2023-05-19T03:31:31;8.82;;;4.93;;
78324;SDS011;67584;51.400;6.692;2023-05-19T03:33:58;7.45;;;4.25;;
78324;SDS011;67584;51.400;6.692;2023-05-19T03:36:23;7.13;;;4.43;;
78324;SDS011;67584;51.400;6.692;2023-05-19T03:38:50;7.35;;;4.20;;
78324;SDS011;67584;51.400;6.692;2023-05-19T03:41:15;8.45;;;4.43;;
78324;SDS011;67584;51.400;6.692;2023-05-19T03:43:42;9.80;;;4.82;;
78324;SDS011;67584;51.400;6.692;2023-05-19T03:46:08;6.65;;;4.18;;
78324;SDS011;67584;51.400;6.692;2023-05-19T03:48:58;7.43;;;4.35;;
78324;SDS011;67584;51.400;6.692;2023-05-19T03:51:26;7.57;;;5.25;;
78324;SDS011;67584;51.400;6.692;2023-05-19T03:53:59;7.03;;;4.60;;
78324;SDS011;67584;51.400;6.692;2023-05-19T03:56:24;9.48;;;4.60;;
78324;SDS011;67584;51.400;6.692;2023-05-19T03:58:51;7.15;;;5.10;;
78324;SDS011;67584;51.400;6.692;2023-05-19T04:01:19;8.73;;;5.00;;
78324;SDS011;67584;51.400;6.692;2023-05-19T04:03:44;11.57;;;5.65;;
78324;SDS011;67584;51.400;6.692;2023-05-19T04:06:10;8.75;;;6.15;;
78324;SDS011;67584;51.400;6.692;2023-05-19T04:08:38;8.57;;;5.63;;
78324;SDS011;67584;51.400;6.692;2023-05-19T04:11:04;9.00;;;5.00;;
78324;SDS011;67584;51.400;6.692;2023-05-19T04:13:33;8.73;;;5.10;;
78324;SDS011;67584;51.400;6.692;2023-05-19T04:15:59;6.80;;;4.57;;
78324;SDS011;67584;51.400;6.692;2023-05-19T04:18:25;7.80;;;5.00;;
78324;SDS011;67584;51.400;6.692;2023-05-19T04:20:50;9.75;;;5.03;;
78324;SDS011;67584;51.400;6.692;2023-05-19T04:23:17;8.30;;;5.15;;
78324;SDS011;67584;51.400;6.692;2023-05-19T04:25:43;8.95;;;5.50;;
78324;SDS011;67584;51.400;6.692;2023-05-19T04:28:09;11.38;;;6.32;;
78324;SDS011;67584;51.400;6.692;2023-05-19T04:30:35;9.27;;;5.90;;
78324;SDS011;67584;51.400;6.692;2023-05-19T04:33:01;10.32;;;5.32;;
78324;SDS011;67584;51.400;6.692;2023-05-19T04:35:28;12.50;;;6.18;;
78324;SDS011;67584;51.400;6.692;2023-05-19T04:37:55;12.77;;;6.00;;
78324;SDS011;67584;51.400;6.692;2023-05-19T04:40:26;13.45;;;5.95;;
78324;SDS011;67584;51.400;6.692;2023-05-19T04:42:55;12.68;;;5.68;;
78324;SDS011;67584;51.400;6.692;2023-05-19T04:45:21;11.57;;;5.78;;
78324;SDS011;67584;51.400;6.692;2023-05-19T04:47:50;11.85;;;6.13;;
78324;SDS011;67584;51.400;6.692;2023-05-19T04:50:16;9.45;;;5.50;;
78324;SDS011;67584;51.400;6.692;2023-05-19T04:52:43;10.75;;;6.22;;
78324;SDS011;67584;51.400;6.692;2023-05-19T04:55:10;10.63;;;5.45;;
78324;SDS011;67584;51.400;6.692;2023-05-19T04:57:36;10.73;;;5.78;;
78324;SDS011;67584;51.400;6.692;2023-05-19T05:00:03;11.63;;;6.75;;
78324;SDS011;67584;51.400;6.692;2023-05-19T05:02:37;9.98;;;6.05;;
78324;SDS011;67584;51.400;6.692;2023-05-19T05:05:02;11.60;;;6.15;;
78324;SDS011;67584;51.400;6.692;2023-05-19T05:07:29;9.80;;;5.43;;
78324;SDS011;67584;51.400;6.692;2023-05-19T05:09:55;10.40;;;5.07;;
78324;SDS011;67584;51.400;6.692;2023-05-19T05:12:21;11.82;;;6.22;;
78324;SDS011;67584;51.400;6.692;2023-05-19T05:14:48;8.88;;;5.88;;
78324;SDS011;67584;51.400;6.692;2023-05-19T05:17:14;10.13;;;5.85;;
78324;SDS011;67584;51.400;6.692;2023-05-19T05:19:41;9.70;;;5.47;;
78324;SDS011;67584;51.400;6.692;2023-05-19T05:22:06;9.15;;;5.93;;
78324;SDS011;67584;51.400;6.692;2023-05-19T05:24:36;10.45;;;6.07;;
78324;SDS011;67584;51.400;6.692;2023-05-19T05:27:02;7.65;;;5.18;;
78324;SDS011;67584;51.400;6.692;2023-05-19T05:29:30;9.00;;;5.63;;
78324;SDS011;67584;51.400;6.692;2023-05-19T05:31:56;10.25;;;6.05;;
78324;SDS011;67584;51.400;6.692;2023-05-19T05:34:22;15.02;;;6.43;;
78324;SDS011;67584;51.400;6.692;2023-05-19T05:36:48;14.43;;;7.70;;
78324;SDS011;67584;51.400;6.692;2023-05-19T05:39:14;12.57;;;5.15;;
78324;SDS011;67584;51.400;6.692;2023-05-19T05:41:42;7.05;;;4.75;;
78324;SDS011;67584;51.400;6.692;2023-05-19T05:44:10;9.13;;;4.88;;
78324;SDS011;67584;51.400;6.692;2023-05-19T05:46:37;8.57;;;4.95;;
78324;SDS011;67584;51.400;6.692;2023-05-19T05:49:03;11.40;;;5.00;;
78324;SDS011;67584;51.400;6.692;2023-05-19T05:51:29;8.57;;;5.18;;
78324;SDS011;67584;51.400;6.692;2023-05-19T05:53:57;8.18;;;5.03;;
78324;SDS011;67584;51.400;6.692;2023-05-19T05:56:30;8.40;;;4.95;;
78324;SDS011;67584;51.400;6.692;2023-05-19T05:58:58;10.75;;;4.30;;
78324;SDS011;67584;51.400;6.692;2023-05-19T06:01:24;7.82;;;3.65;;
78324;SDS011;67584;51.400;6.692;2023-05-19T06:03:51;5.13;;;4.15;;
78324;SDS011;67584;51.400;6.692;2023-05-19T06:06:20;12.10;;;3.83;;
78324;SDS011;67584;51.400;6.692;2023-05-19T06:08:46;4.97;;;3.60;;
78324;SDS011;67584;51.400;6.692;2023-05-19T06:11:11;8.40;;;3.60;;
78324;SDS011;67584;51.400;6.692;2023-05-19T06:13:39;6.25;;;4.30;;
78324;SDS011;67584;51.400;6.692;2023-05-19T06:16:12;6.13;;;3.80;;
78324;SDS011;67584;51.400;6.692;2023-05-19T06:18:42;4.75;;;3.17;;
78324;SDS011;67584;51.400;6.692;2023-05-19T06:21:08;5.13;;;3.35;;
78324;SDS011;67584;51.400;6.692;2023-05-19T06:23:38;7.22;;;4.10;;
78324;SDS011;67584;51.400;6.692;2023-05-19T06:26:07;4.82;;;3.25;;
78324;SDS011;67584;51.400;6.692;2023-05-19T06:28:32;5.85;;;3.55;;
78324;SDS011;67584;51.400;6.692;2023-05-19T06:30:58;6.25;;;4.35;;
78324;SDS011;67584;51.400;6.692;2023-05-19T06:33:37;5.38;;;3.65;;
78324;SDS011;67584;51.400;6.692;2023-05-19T06:36:03;5.85;;;3.63;;
78324;SDS011;67584;51.400;6.692;2023-05-19T06:38:29;5.43;;;3.70;;
78324;SDS011;67584;51.400;6.692;2023-05-19T06:40:55;6.75;;;3.78;;
78324;SDS011;67584;51.400;6.692;2023-05-19T06:43:21;5.20;;;3.45;;
78324;SDS011;67584;51.400;6.692;2023-05-19T06:45:52;6.80;;;3.67;;
78324;SDS011;67584;51.400;6.692;2023-05-19T06:48:18;10.48;;;4.25;;
78324;SDS011;67584;51.400;6.692;2023-05-19T06:50:43;5.45;;;3.63;;
78324;SDS011;67584;51.400;6.692;2023-05-19T06:53:10;6.95;;;3.67;;
78324;SDS011;67584;51.400;6.692;2023-05-19T06:55:36;5.82;;;3.30;;
78324;SDS011;67584;51.400;6.692;2023-05-19T06:58:02;5.35;;;3.42;;
78324;SDS011;67584;51.400;6.692;2023-05-19T07:00:28;7.82;;;3.70;;
78324;SDS011;67584;51.400;6.692;2023-05-19T07:02:54;4.97;;;3.33;;
78324;SDS011;67584;51.400;6.692;2023-05-19T07:05:20;5.15;;;3.40;;
78324;SDS011;67584;51.400;6.692;2023-05-19T07:07:50;5.32;;;3.55;;
78324;SDS011;67584;51.400;6.692;2023-05-19T07:10:21;8.02;;;3.22;;
78324;SDS011;67584;51.400;6.692;2023-05-19T07:12:47;5.47;;;3.22;;
78324;SDS011;67584;51.400;6.692;2023-05-19T07:15:15;7.00;;;3.60;;
78324;SDS011;67584;51.400;6.692;2023-05-19T07:17:41;6.15;;;3.53;;
78324;SDS011;67584;51.400;6.692;2023-05-19T07:20:07;6.07;;;3.30;;
78324;SDS011;67584;51.400;6.692;2023-05-19T07:22:36;5.32;;;3.20;;
78324;SDS011;67584;51.400;6.692;2023-05-19T07:25:07;5.93;;;4.13;;
78324;SDS011;67584;51.400;6.692;2023-05-19T07:27:35;6.15;;;3.30;;
78324;SDS011;67584;51.400;6.692;2023-05-19T07:30:02;5.93;;;3.67;;
78324;SDS011;67584;51.400;6.692;2023-05-19T07:32:28;8.23;;;3.72;;
78324;SDS011;67584;51.400;6.692;2023-05-19T07:34:53;5.65;;;2.90;;
78324;SDS011;67584;51.400;6.692;2023-05-19T07:37:19;6.90;;;3.63;;
78324;SDS011;67584;51.400;6.692;2023-05-19T07:39:45;5.18;;;3.40;;
78324;SDS011;67584;51.400;6.692;2023-05-19T07:42:10;7.43;;;3.28;;
78324;SDS011;67584;51.400;6.692;2023-05-19T07:44:36;5.05;;;2.97;;
78324;SDS011;67584;51.400;6.692;2023-05-19T07:47:01;7.93;;;3.30;;
78324;SDS011;67584;51.400;6.692;2023-05-19T07:49:27;6.45;;;2.83;;
78324;SDS011;67584;51.400;6.692;2023-05-19T07:51:53;5.65;;;3.85;;
78324;SDS011;67584;51.400;6.692;2023-05-19T07:54:19;8.43;;;3.15;;
78324;SDS011;67584;51.400;6.692;2023-05-19T07:56:45;4.68;;;2.70;;
78324;SDS011;67584;51.400;6.692;2023-05-19T07:59:12;4.97;;;2.60;;
78324;SDS011;67584;51.400;6.692;2023-05-19T08:01:38;4.55;;;2.53;;
78324;SDS011;67584;51.400;6.692;2023-05-19T08:04:04;5.30;;;2.70;;
78324;SDS011;67584;51.400;6.692;2023-05-19T08:06:29;5.40;;;3.00;;
78324;SDS011;67584;51.400;6.692;2023-05-19T08:08:55;6.80;;;2.63;;
78324;SDS011;67584;51.400;6.692;2023-05-19T08:11:21;6.43;;;3.03;;
78324;SDS011;67584;51.400;6.692;2023-05-19T08:13:47;3.95;;;2.70;;
78324;SDS011;67584;51.400;6.692;2023-05-19T08:16:16;4.57;;;2.33;;
78324;SDS011;67584;51.400;6.692;2023-05-19T08:18:45;5.63;;;3.03;;
78324;SDS011;67584;51.400;6.692;2023-05-19T08:21:11;11.50;;;3.42;;
78324;SDS011;67584;51.400;6.692;2023-05-19T08:23:36;7.80;;;2.50;;
78324;SDS011;67584;51.400;6.692;2023-05-19T08:26:03;5.60;;;2.97;;
78324;SDS011;67584;51.400;6.692;2023-05-19T08:28:29;4.78;;;2.63;;
78324;SDS011;67584;51.400;6.692;2023-05-19T08:30:54;8.40;;;2.55;;
78324;SDS011;67584;51.400;6.692;2023-05-19T08:33:20;4.20;;;2.70;;
78324;SDS011;67584;51.400;6.692;2023-05-19T08:35:47;6.95;;;2.50;;
78324;SDS011;67584;51.400;6.692;2023-05-19T08:38:12;5.45;;;2.50;;
78324;SDS011;67584;51.400;6.692;2023-05-19T08:40:41;5.55;;;2.33;;
78324;SDS011;67584;51.400;6.692;2023-05-19T08:43:10;2.97;;;1.85;;
78324;SDS011;67584;51.400;6.692;2023-05-19T08:45:36;4.00;;;2.10;;
78324;SDS011;67584;51.400;6.692;2023-05-19T08:48:05;4.45;;;2.75;;
78324;SDS011;67584;51.400;6.692;2023-05-19T08:50:33;4.97;;;2.92;;
78324;SDS011;67584;51.400;6.692;2023-05-19T08:53:10;7.35;;;2.80;;
78324;SDS011;67584;51.400;6.692;2023-05-19T08:55:58;4.93;;;2.22;;
78324;SDS011;67584;51.400;6.692;2023-05-19T08:58:34;4.32;;;2.10;;
78324;SDS011;67584;51.400;6.692;2023-05-19T09:01:00;4.35;;;3.22;;
78324;SDS011;67584;51.400;6.692;2023-05-19T09:03:27;3.95;;;2.30;;
78324;SDS011;67584;51.400;6.692;2023-05-19T09:05:54;4.63;;;2.00;;
78324;SDS011;67584;51.400;6.692;2023-05-19T09:08:19;5.55;;;2.47;;
78324;SDS011;67584;51.400;6.692;2023-05-19T09:10:46;5.82;;;2.63;;
78324;SDS011;67584;51.400;6.692;2023-05-19T09:13:12;4.55;;;2.30;;
78324;SDS011;67584;51.400;6.692;2023-05-19T09:15:38;7.65;;;2.30;;
78324;SDS011;67584;51.400;6.692;2023-05-19T09:18:10;6.78;;;2.30;;
78324;SDS011;67584;51.400;6.692;2023-05-19T09:20:38;3.30;;;2.10;;
78324;SDS011;67584;51.400;6.692;2023-05-19T09:23:05;6.40;;;2.25;;
78324;SDS011;67584;51.400;6.692;2023-05-19T09:25:32;4.30;;;2.20;;
78324;SDS011;67584;51.400;6.692;2023-05-19T09:27:58;4.00;;;2.10;;
78324;SDS011;67584;51.400;6.692;2023-05-19T09:30:24;5.35;;;2.47;;
78324;SDS011;67584;51.400;6.692;2023-05-19T09:32:51;5.95;;;2.20;;
78324;SDS011;67584;51.400;6.692;2023-05-19T09:35:17;4.30;;;2.35;;
78324;SDS011;67584;51.400;6.692;2023-05-19T09:37:44;3.10;;;1.80;;
78324;SDS011;67584;51.400;6.692;2023-05-19T09:40:12;3.38;;;2.10;;
78324;SDS011;67584;51.400;6.692;2023-05-19T09:45:05;4.53;;;2.20;;
78324;SDS011;67584;51.400;6.692;2023-05-19T09:47:35;3.80;;;2.35;;
78324;SDS011;67584;51.400;6.692;2023-05-19T09:50:08;4.30;;;2.15;;
78324;SDS011;67584;51.400;6.692;2023-05-19T09:52:39;5.60;;;2.30;;
78324;SDS011;67584;51.400;6.692;2023-05-19T09:55:08;4.03;;;2.65;;
78324;SDS011;67584;51.400;6.692;2023-05-19T09:57:35;5.97;;;2.00;;
78324;SDS011;67584;51.400;6.692;2023-05-19T10:00:03;5.40;;;2.20;;
78324;SDS011;67584;51.400;6.692;2023-05-19T10:02:40;5.43;;;2.33;;
78324;SDS011;67584;51.400;6.692;2023-05-19T10:05:13;4.25;;;2.88;;
78324;SDS011;67584;51.400;6.692;2023-05-19T10:07:44;4.05;;;2.10;;
78324;SDS011;67584;51.400;6.692;2023-05-19T10:10:13;3.38;;;2.55;;
78324;SDS011;67584;51.400;6.692;2023-05-19T10:12:40;4.38;;;2.50;;
78324;SDS011;67584;51.400;6.692;2023-05-19T10:15:08;5.45;;;2.30;;
78324;SDS011;67584;51.400;6.692;2023-05-19T10:17:36;3.58;;;2.25;;
78324;SDS011;67584;51.400;6.692;2023-05-19T10:20:03;7.50;;;2.13;;
78324;SDS011;67584;51.400;6.692;2023-05-19T10:22:31;4.00;;;2.08;;
78324;SDS011;67584;51.400;6.692;2023-05-19T10:24:57;3.42;;;2.58;;
78324;SDS011;67584;51.400;6.692;2023-05-19T10:27:23;4.07;;;2.60;;
78324;SDS011;67584;51.400;6.692;2023-05-19T10:29:51;3.40;;;1.95;;
78324;SDS011;67584;51.400;6.692;2023-05-19T10:32:25;6.10;;;2.47;;
78324;SDS011;67584;51.400;6.692;2023-05-19T10:37:45;5.65;;;2.33;;
78324;SDS011;67584;51.400;6.692;2023-05-19T10:40:35;7.55;;;2.63;;
78324;SDS011;67584;51.400;6.692;2023-05-19T10:45:52;6.25;;;2.25;;
78324;SDS011;67584;51.400;6.692;2023-05-19T10:48:19;4.07;;;2.30;;
78324;SDS011;67584;51.400;6.692;2023-05-19T10:50:45;5.43;;;2.67;;
78324;SDS011;67584;51.400;6.692;2023-05-19T10:53:15;6.07;;;2.33;;
78324;SDS011;67584;51.400;6.692;2023-05-19T10:55:46;8.90;;;3.03;;
78324;SDS011;67584;51.400;6.692;2023-05-19T11:01:17;5.53;;;2.50;;
78324;SDS011;67584;51.400;6.692;2023-05-19T11:03:47;4.75;;;2.20;;
78324;SDS011;67584;51.400;6.692;2023-05-19T11:08:42;7.07;;;2.30;;
78324;SDS011;67584;51.400;6.692;2023-05-19T11:11:14;5.20;;;2.40;;
78324;SDS011;67584;51.400;6.692;2023-05-19T11:13:51;4.63;;;2.30;;
78324;SDS011;67584;51.400;6.692;2023-05-19T11:16:25;3.38;;;2.70;;
78324;SDS011;67584;51.400;6.692;2023-05-19T11:18:57;5.20;;;2.53;;
78324;SDS011;67584;51.400;6.692;2023-05-19T11:21:23;4.35;;;2.13;;
78324;SDS011;67584;51.400;6.692;2023-05-19T11:24:06;4.50;;;2.33;;
78324;SDS011;67584;51.400;6.692;2023-05-19T11:26:39;4.43;;;2.42;;
78324;SDS011;67584;51.400;6.692;2023-05-19T11:29:07;5.47;;;2.70;;
78324;SDS011;67584;51.400;6.692;2023-05-19T11:31:33;5.32;;;2.45;;
78324;SDS011;67584;51.400;6.692;2023-05-19T11:34:00;6.90;;;2.78;;
78324;SDS011;67584;51.400;6.692;2023-05-19T11:36:27;4.78;;;2.47;;
78324;SDS011;67584;51.400;6.692;2023-05-19T11:38:53;4.50;;;2.33;;
78324;SDS011;67584;51.400;6.692;2023-05-19T11:41:19;3.95;;;2.45;;
78324;SDS011;67584;51.400;6.692;2023-05-19T11:43:46;4.15;;;2.50;;
78324;SDS011;67584;51.400;6.692;2023-05-19T11:46:12;5.07;;;2.83;;
78324;SDS011;67584;51.400;6.692;2023-05-19T11:48:37;4.13;;;2.55;;
78324;SDS011;67584;51.400;6.692;2023-05-19T11:51:04;3.22;;;2.10;;
78324;SDS011;67584;51.400;6.692;2023-05-19T11:53:30;4.00;;;2.30;;
78324;SDS011;67584;51.400;6.692;2023-05-19T11:56:01;5.05;;;2.88;;
78324;SDS011;67584;51.400;6.692;2023-05-19T11:58:28;6.63;;;2.60;;
78324;SDS011;67584;51.400;6.692;2023-05-19T12:00:54;3.88;;;2.45;;
78324;SDS011;67584;51.400;6.692;2023-05-19T12:03:20;5.88;;;2.75;;
78324;SDS011;67584;51.400;6.692;2023-05-19T12:05:50;5.50;;;2.75;;
78324;SDS011;67584;51.400;6.692;2023-05-19T12:08:17;5.93;;;2.53;;
78324;SDS011;67584;51.400;6.692;2023-05-19T12:10:42;5.10;;;2.22;;
78324;SDS011;67584;51.400;6.692;2023-05-19T12:13:11;6.10;;;2.38;;
78324;SDS011;67584;51.400;6.692;2023-05-19T12:15:37;3.15;;;1.90;;
78324;SDS011;67584;51.400;6.692;2023-05-19T12:18:02;5.70;;;2.75;;
78324;SDS011;67584;51.400;6.692;2023-05-19T12:20:28;4.00;;;2.50;;
78324;SDS011;67584;51.400;6.692;2023-05-19T12:22:57;6.25;;;2.65;;
78324;SDS011;67584;51.400;6.692;2023-05-19T12:25:24;4.50;;;2.20;;
78324;SDS011;67584;51.400;6.692;2023-05-19T12:27:49;4.82;;;2.42;;
78324;SDS011;67584;51.400;6.692;2023-05-19T12:30:23;5.07;;;2.30;;
78324;SDS011;67584;51.400;6.692;2023-05-19T12:32:52;5.68;;;2.20;;
78324;SDS011;67584;51.400;6.692;2023-05-19T12:35:18;6.57;;;3.15;;
78324;SDS011;67584;51.400;6.692;2023-05-19T12:37:44;4.60;;;2.35;;
78324;SDS011;67584;51.400;6.692;2023-05-19T12:40:13;5.32;;;3.17;;
78324;SDS011;67584;51.400;6.692;2023-05-19T12:42:43;4.32;;;2.45;;
78324;SDS011;67584;51.400;6.692;2023-05-19T12:45:09;5.32;;;2.47;;
78324;SDS011;67584;51.400;6.692;2023-05-19T12:47:35;6.47;;;2.53;;
78324;SDS011;67584;51.400;6.692;2023-05-19T12:52:44;4.28;;;2.53;;
78324;SDS011;67584;51.400;6.692;2023-05-19T12:55:11;4.35;;;2.30;;
78324;SDS011;67584;51.400;6.692;2023-05-19T12:57:42;5.93;;;2.40;;
78324;SDS011;67584;51.400;6.692;2023-05-19T13:03:04;4.50;;;2.70;;
78324;SDS011;67584;51.400;6.692;2023-05-19T13:05:35;4.28;;;2.85;;
78324;SDS011;67584;51.400;6.692;2023-05-19T13:08:04;7.43;;;2.53;;
78324;SDS011;67584;51.400;6.692;2023-05-19T13:10:34;4.93;;;2.60;;
78324;SDS011;67584;51.400;6.692;2023-05-19T13:13:01;5.25;;;2.80;;
78324;SDS011;67584;51.400;6.692;2023-05-19T13:15:28;4.82;;;2.75;;
78324;SDS011;67584;51.400;6.692;2023-05-19T13:17:56;4.97;;;2.65;;
78324;SDS011;67584;51.400;6.692;2023-05-19T13:20:22;4.78;;;2.60;;
78324;SDS011;67584;51.400;6.692;2023-05-19T13:22:48;3.83;;;1.95;;
78324;SDS011;67584;51.400;6.692;2023-05-19T13:25:14;5.47;;;2.65;;
78324;SDS011;67584;51.400;6.692;2023-05-19T13:27:41;4.57;;;2.67;;
78324;SDS011;67584;51.400;6.692;2023-05-19T13:30:08;5.97;;;3.25;;
78324;SDS011;67584;51.400;6.692;2023-05-19T13:32:34;5.60;;;3.45;;
78324;SDS011;67584;51.400;6.692;2023-05-19T13:35:00;4.03;;;2.25;;
78324;SDS011;67584;51.400;6.692;2023-05-19T13:37:26;5.00;;;3.30;;
78324;SDS011;67584;51.400;6.692;2023-05-19T13:39:52;4.90;;;3.38;;
78324;SDS011;67584;51.400;6.692;2023-05-19T13:42:18;6.47;;;3.28;;
78324;SDS011;67584;51.400;6.692;2023-05-19T13:44:44;5.28;;;2.90;;
78324;SDS011;67584;51.400;6.692;2023-05-19T13:47:10;5.30;;;2.50;;
78324;SDS011;67584;51.400;6.692;2023-05-19T13:49:36;5.13;;;2.70;;
78324;SDS011;67584;51.400;6.692;2023-05-19T13:52:02;7.05;;;2.60;;
78324;SDS011;67584;51.400;6.692;2023-05-19T13:54:28;4.38;;;2.70;;
78324;SDS011;67584;51.400;6.692;2023-05-19T13:56:53;9.40;;;3.33;;
78324;SDS011;67584;51.400;6.692;2023-05-19T13:59:19;3.25;;;2.20;;
78324;SDS011;67584;51.400;6.692;2023-05-19T14:01:47;3.45;;;2.33;;
78324;SDS011;67584;51.400;6.692;2023-05-19T14:04:16;4.90;;;2.70;;
78324;SDS011;67584;51.400;6.692;2023-05-19T14:06:43;8.15;;;3.13;;
78324;SDS011;67584;51.400;6.692;2023-05-19T14:09:09;4.28;;;2.28;;
78324;SDS011;67584;51.400;6.692;2023-05-19T14:11:35;6.13;;;2.70;;
78324;SDS011;67584;51.400;6.692;2023-05-19T14:14:01;4.95;;;3.03;;
78324;SDS011;67584;51.400;6.692;2023-05-19T14:16:27;4.03;;;2.30;;
78324;SDS011;67584;51.400;6.692;2023-05-19T14:18:54;7.53;;;2.90;;
78324;SDS011;67584;51.400;6.692;2023-05-19T14:21:20;4.43;;;2.60;;
78324;SDS011;67584;51.400;6.692;2023-05-19T14:23:46;4.15;;;2.58;;
78324;SDS011;67584;51.400;6.692;2023-05-19T14:26:12;4.43;;;2.40;;
78324;SDS011;67584;51.400;6.692;2023-05-19T14:28:38;4.30;;;2.40;;
78324;SDS011;67584;51.400;6.692;2023-05-19T14:31:03;5.68;;;2.72;;
78324;SDS011;67584;51.400;6.692;2023-05-19T14:33:30;4.78;;;2.60;;
78324;SDS011;67584;51.400;6.692;2023-05-19T14:35:55;4.90;;;2.70;;
78324;SDS011;67584;51.400;6.692;2023-05-19T14:38:24;4.38;;;2.33;;
78324;SDS011;67584;51.400;6.692;2023-05-19T14:40:50;4.55;;;2.05;;
78324;SDS011;67584;51.400;6.692;2023-05-19T14:43:16;3.92;;;2.67;;
78324;SDS011;67584;51.400;6.692;2023-05-19T14:45:41;5.18;;;2.53;;
78324;SDS011;67584;51.400;6.692;2023-05-19T14:48:08;3.67;;;2.28;;
78324;SDS011;67584;51.400;6.692;2023-05-19T14:50:36;4.32;;;2.45;;
78324;SDS011;67584;51.400;6.692;2023-05-19T14:53:02;3.97;;;2.20;;
78324;SDS011;67584;51.400;6.692;2023-05-19T14:55:27;4.45;;;2.78;;
78324;SDS011;67584;51.400;6.692;2023-05-19T14:57:53;5.78;;;3.00;;
78324;SDS011;67584;51.400;6.692;2023-05-19T15:00:19;5.95;;;2.88;;
78324;SDS011;67584;51.400;6.692;2023-05-19T15:02:45;4.38;;;2.90;;
78324;SDS011;67584;51.400;6.692;2023-05-19T15:05:11;4.20;;;2.58;;
78324;SDS011;67584;51.400;6.692;2023-05-19T15:07:37;4.10;;;2.75;;
78324;SDS011;67584;51.400;6.692;2023-05-19T15:10:03;4.45;;;2.75;;
78324;SDS011;67584;51.400;6.692;2023-05-19T15:12:29;3.78;;;2.22;;
78324;SDS011;67584;51.400;6.692;2023-05-19T15:14:54;5.07;;;2.80;;
78324;SDS011;67584;51.400;6.692;2023-05-19T15:17:20;4.45;;;2.55;;
78324;SDS011;67584;51.400;6.692;2023-05-19T15:19:46;4.45;;;2.83;;